METAR Data
IDs: Format: Raw Decoded Include TAF

Data at: 2219 UTC 25 Oct 2021

KF46 252215Z AUTO 05006KT 10SM CLR 29/12 A2991 RMK AO2 T02900115
KF46 252155Z AUTO 05007KT 10SM CLR 29/12 A2992 RMK AO2 T02930116
KF46 252135Z AUTO 05005KT 10SM CLR 30/11 A2992 RMK AO2 T02950112
KF46 252115Z AUTO 03005KT 10SM CLR 29/11 A2993 RMK AO2 T02940107
KF46 252055Z AUTO 04004KT 10SM CLR 30/10 A2993 RMK AO2 T02960102
KF46 252035Z AUTO 06007KT 10SM CLR 29/11 A2993 RMK AO2 T02940107
KF46 252015Z AUTO 07005KT 10SM CLR 30/10 A2993 RMK AO2 T02950101
KF46 251955Z AUTO 05006KT 10SM CLR 29/10 A2993 RMK AO2 T02920104
KF46 251935Z AUTO 06004KT 10SM CLR 29/11 A2994 RMK AO2 T02930108
KF46 251915Z AUTO 05008KT 10SM 29/10 A2995 RMK AO2 T02920096
KF46 251855Z AUTO 05007KT 10SM CLR 29/10 A2995 RMK AO2 T02900099
KF46 251835Z AUTO 05006KT 10SM CLR 29/10 A2997 RMK AO2 T02870104
KF46 251815Z AUTO 02008KT 10SM CLR 29/10 A2997 RMK AO2 T02850100
KF46 251755Z AUTO 03008KT 10SM CLR 28/09 A2998 RMK AO2 T02810087 10283 20166
KF46 251735Z AUTO 03007KT 10SM CLR 28/10 A2998 RMK AO2 T02760096
KF46 251715Z AUTO 05009KT 10SM CLR 27/08 A2999 RMK AO2 T02700079
KF46 251655Z AUTO 05010KT 10SM CLR 26/08 A3000 RMK AO2 T02640080
KF46 251635Z AUTO 04006KT 10SM CLR 26/11 A3000 RMK AO2 T02620109
KF46 251615Z AUTO 03007KT 10SM CLR 26/11 A3000 RMK AO2 T02550114
KF46 251555Z AUTO 03009KT 10SM CLR 24/11 A3000 RMK AO2 T02420111
KF46 251535Z AUTO 04008KT 10SM CLR 24/12 A3000 RMK AO2 T02370117
KF46 251515Z AUTO 04006KT 10SM CLR 23/12 A3001 RMK AO2 T02260123
KF46 251455Z AUTO 05008KT 10SM CLR 22/13 A3001 RMK AO2 T02170125
KF46 251435Z AUTO 04005KT 10SM CLR 21/13 A3001 RMK AO2 T02060133
KF46 251415Z AUTO 03004KT 10SM CLR 20/14 A3000 RMK AO2 T01980140
KF46 251355Z AUTO 05003KT 10SM CLR 19/14 A3000 RMK AO2 T01850140
KF46 251335Z AUTO 05003KT 10SM CLR 17/15 A2999 RMK AO2 T01710148
KF46 251315Z AUTO 07004KT 10SM CLR 17/15 A2998 RMK AO2 T01670146
KF46 251255Z AUTO 05004KT 10SM CLR 17/14 A2997 RMK AO2 T01670143
KF46 251235Z AUTO 04005KT 10SM CLR 17/14 A2996 RMK AO2 T01680141
KF46 251215Z AUTO 02004KT 10SM CLR 17/14 A2995 RMK AO2 T01700143
KF46 251155Z AUTO 03007KT 10SM CLR 17/15 A2994 RMK AO2 T01720145 10217 20170
KF46 251135Z AUTO 03007KT 10SM CLR 17/15 A2995 RMK AO2 T01720145
KF46 251115Z AUTO 03004KT 10SM CLR 17/15 A2995 RMK AO2 T01710147
KF46 251055Z AUTO 03004KT 10SM CLR 17/15 A2995 RMK AO2 T01710150
KF46 251035Z AUTO 03004KT 10SM CLR 17/15 A2994 RMK AO2 T01720151
KF46 251015Z AUTO 02006KT 10SM CLR 18/15 A2994 RMK AO2 T01750151
KF46 250955Z AUTO 03004KT 10SM CLR 18/15 A2993 RMK AO2 T01760153
KF46 250935Z AUTO 02005KT 10SM CLR 17/16 A2993 RMK AO2 T01740159
KF46 250915Z AUTO 03003KT 10SM CLR 18/16 A2993 RMK AO2 T01800155
KF46 250855Z AUTO 02004KT 10SM CLR 18/15 A2993 RMK AO2 T01820153
KF46 250835Z AUTO 01004KT 10SM CLR 19/15 A2993 RMK AO2 T01850152
KF46 250815Z AUTO 36004KT 10SM CLR 19/15 A2993 RMK AO2 T01860152
KF46 250755Z AUTO 02003KT 10SM CLR 19/16 A2993 RMK AO2 T01870156
KF46 250735Z AUTO 01003KT 10SM CLR 19/15 A2992 RMK AO2 T01920154
KF46 250715Z AUTO 01003KT 10SM CLR 19/16 A2992 RMK AO2 T01930159
KF46 250655Z AUTO 35004KT 10SM CLR 20/16 A2991 RMK AO2 T01970158
KF46 250635Z AUTO 35004KT 10SM CLR 21/16 A2991 RMK AO2 T02050161
KF46 250615Z AUTO 33003KT 10SM CLR 22/17 A2991 RMK AO2 T02150169
KF46 250555Z AUTO 33007KT 10SM CLR 22/19 A2991 RMK AO2 T02170192 10266 20217 402890188
KF46 250535Z AUTO 31006KT 10SM CLR 22/22 A2991 RMK AO2 T02210221
KF46 250515Z AUTO 31005KT 10SM CLR 23/23 A2991 RMK AO2 T02250225
KF46 250455Z AUTO 21003KT 10SM CLR 23/21 A2990 RMK AO2 T02340214
KF46 250435Z AUTO 20003KT 10SM CLR 24/21 A2989 RMK AO2 T02350213
KF46 250415Z AUTO 21003KT 10SM CLR 24/21 A2989 RMK AO2 T02390210
KF46 250355Z AUTO 19006KT 10SM SCT070 24/21 A2988 RMK AO2 T02400208
KF46 250335Z AUTO 19007KT 10SM SCT046 SCT070 24/21 A2987 RMK AO2 T02430206
KF46 250315Z AUTO 20005KT 10SM BKN070 BKN080 25/20 A2987 RMK AO2 T02450203
KF46 250255Z AUTO 21003KT 10SM SCT040 SCT048 BKN070 25/20 A2986 RMK AO2 T02500199
KF46 250235Z AUTO 00000KT 10SM BKN040 BKN050 BKN070 25/20 A2985 RMK AO2 T02500200
KF46 250215Z AUTO 20004KT 10SM SCT085 25/20 A2983 RMK AO2 T02510195
KF46 250155Z AUTO 17007KT 10SM CLR 25/20 A2982 RMK AO2 T02510195
KF46 250135Z AUTO 16007KT 10SM CLR 25/20 A2981 RMK AO2 T02530195
KF46 250115Z AUTO 14007KT 10SM CLR 26/19 A2980 RMK AO2 T02550193
KF46 250055Z AUTO 14008KT 10SM CLR 26/19 A2980 RMK AO2 T02570194
KF46 250035Z AUTO 14008KT 10SM CLR 26/20 A2979 RMK AO2 T02580195
KF46 250015Z AUTO 14008KT 10SM CLR 26/20 A2979 RMK AO2 T02610195
KF46 242355Z AUTO 15011KT 10SM CLR 27/20 A2979 RMK AO2 T02660195 10289 20254
KF46 242335Z AUTO 15008KT 10SM CLR 27/19 A2979 RMK AO2 T02720192
KF46 242315Z AUTO 15011G16KT 10SM CLR 28/19 A2978 RMK AO2 T02760192
KF46 242255Z AUTO 15011G16KT 10SM CLR 28/19 A2978 RMK AO2 T02780192
KF46 242235Z AUTO 14012G17KT 10SM SCT050 28/19 A2979 RMK AO2 T02800193
KF46 242215Z AUTO 16011KT 10SM SCT040 OVC050 28/19 A2980 RMK AO2 T02790191
KF46 242155Z AUTO 17011G16KT 10SM BKN038 BKN050 28/19 A2980 RMK AO2 T02780191
KF46 242135Z AUTO 16011G21KT 10SM BKN036 29/20 A2978 RMK AO2 T02860195
KF46 242115Z AUTO 17015G22KT 10SM SCT036 SCT042 29/19 A2977 RMK AO2 T02870193
KF46 242055Z AUTO 16012KT 10SM SCT036 SCT042 29/20 A2978 RMK AO2 T02870197
KF46 242035Z AUTO 16015G20KT 10SM SCT036 SCT043 SCT049 28/20 A2978 RMK AO2 T02800195
KF46 242015Z AUTO 16015G20KT 10SM SCT035 BKN043 BKN049 28/20 A2978 RMK AO2 T02820197
KF46 241955Z AUTO 15016G20KT 10SM BKN035 OVC043 27/20 A2979 RMK AO2 T02720195
KF46 241935Z AUTO 16013G25KT 10SM OVC032 28/20 A2979 RMK AO2 T02750196
KF46 241915Z AUTO 15019G24KT 10SM BKN030 OVC035 27/20 A2979 RMK AO2 T02700196
KF46 241855Z AUTO 16016G22KT 10SM BKN030 27/20 A2980 RMK AO2 T02740199
KF46 241835Z AUTO 16017G25KT 10SM BKN024 BKN032 27/20 A2981 RMK AO2 T02730200
KF46 241815Z AUTO 15014G23KT 10SM BKN024 BKN030 OVC035 26/20 A2982 RMK AO2 T02620200
KF46 241755Z AUTO 17014G22KT 10SM BKN022 26/20 A2983 RMK AO2 T02620200 10264 20193
KF46 241735Z AUTO 15014G23KT 10SM BKN020 BKN025 26/20 A2984 RMK AO2 T02600200
KF46 241715Z AUTO 16016G23KT 10SM BKN018 25/20 A2985 RMK AO2 T02540202
KF46 241655Z AUTO 15017G20KT 10SM OVC018 25/20 A2985 RMK AO2 T02460201
KF46 241635Z AUTO 15014G23KT 10SM BKN016 25/21 A2986 RMK AO2 T02450210
KF46 241615Z AUTO 15014G18KT 10SM OVC014 24/22 A2987 RMK AO2 T02400216
KF46 241555Z AUTO 14013G18KT 10SM BKN010 BKN022 23/22 A2988 RMK AO2 T02330220
KF46 241535Z AUTO 13013G19KT 10SM BKN008 OVC022 21/21 A2986 RMK AO2 T02120212
KF46 241515Z AUTO 13008KT 10SM OVC006 20/20 A2987 RMK AO2 T02020202
KF46 241455Z AUTO 13013G18KT 5SM BR OVC006 20/20 A2988 RMK AO2 T02000200
KF46 241435Z AUTO 13011G15KT 10SM OVC006 20/20 A2988 RMK AO2 T02000200
KF46 241415Z AUTO 14012KT 7SM OVC006 20/20 A2988 RMK AO2 T01960196
KF46 241355Z AUTO 14009G15KT 7SM OVC006 19/19 A2988 RMK AO2 T01940194
KF46 241335Z AUTO 14009KT 4SM BR OVC008 19/19 A2987 RMK AO2 T01930193
KF46 241315Z AUTO 15008KT 7SM OVC008 19/19 A2987 RMK AO2 T01930193
KF46 241255Z AUTO 16010G17KT 10SM OVC008 20/20 A2987 RMK AO2 T01950195
KF46 241235Z AUTO 16012G16KT 10SM OVC008 20/20 A2986 RMK AO2 T01950195
KF46 241215Z AUTO 15012KT 10SM OVC010 20/20 A2985 RMK AO2 T01950195
KF46 241155Z AUTO 15012G16KT 10SM BKN010 OVC015 19/19 A2985 RMK AO2 T01920192 10223 20188
KF46 241135Z AUTO 16006KT 10SM SCT014 19/19 A2985 RMK AO2 T01890189
KF46 241115Z AUTO 14009KT 10SM CLR 19/19 A2984 RMK AO2 T01900190
KF46 241055Z AUTO 13008KT 10SM CLR 19/19 A2983 RMK AO2 T01900190
KF46 241035Z AUTO 15006KT 10SM CLR 19/19 A2983 RMK AO2 T01910191